createdAt,value
2022-08-14T00:01:24.303Z,9.40
2022-08-14T00:04:34.547Z,10.80
2022-08-14T00:07:22.329Z,10.00
2022-08-14T00:10:52.178Z,8.50
2022-08-14T00:13:28.557Z,10.10
2022-08-14T00:16:13.994Z,8.30
2022-08-14T00:19:22.820Z,8.90
2022-08-14T00:22:14.901Z,9.60
2022-08-14T00:25:25.271Z,9.40
2022-08-14T00:28:34.733Z,8.60
2022-08-14T00:31:34.832Z,10.00
2022-08-14T00:34:36.533Z,10.20
2022-08-14T00:37:37.593Z,9.20
2022-08-14T00:40:27.379Z,9.00
2022-08-14T00:43:22.567Z,9.00
2022-08-14T00:46:32.325Z,11.30
2022-08-14T00:49:22.046Z,11.80
2022-08-14T00:52:17.528Z,10.70
2022-08-14T00:55:00.100Z,10.40
2022-08-14T00:57:34.795Z,11.00
2022-08-14T01:00:37.431Z,12.70
2022-08-14T01:03:39.215Z,13.90
2022-08-14T01:06:30.336Z,18.60
2022-08-14T01:09:23.444Z,17.70
2022-08-14T01:12:12.777Z,19.20
2022-08-14T01:15:20.863Z,15.80
2022-08-14T01:18:40.299Z,14.60
2022-08-14T01:21:34.737Z,12.30
2022-08-14T01:24:22.950Z,13.20
2022-08-14T01:27:22.368Z,13.10
2022-08-14T01:30:14.083Z,13.60
2022-08-14T01:33:12.387Z,12.40
2022-08-14T01:36:05.143Z,12.10
2022-08-14T01:38:57.445Z,14.30
2022-08-14T01:41:55.800Z,12.30
2022-08-14T01:44:50.562Z,11.00
2022-08-14T01:47:43.110Z,10.30
2022-08-14T01:50:33.757Z,11.00
2022-08-14T01:53:22.704Z,11.80
2022-08-14T01:56:18.371Z,11.60
2022-08-14T01:59:10.186Z,12.20
2022-08-14T02:02:12.020Z,10.90
2022-08-14T02:05:13.062Z,11.60
2022-08-14T02:08:09.554Z,9.90
2022-08-14T02:11:14.542Z,12.00
2022-08-14T02:14:08.689Z,12.20
2022-08-14T02:16:57.890Z,11.60
2022-08-14T02:19:47.468Z,12.70
2022-08-14T02:22:47.444Z,15.10
2022-08-14T02:25:31.197Z,10.30
2022-08-14T02:28:56.103Z,11.20
2022-08-14T02:31:42.495Z,15.10
2022-08-14T02:34:36.259Z,11.00
2022-08-14T02:37:25.643Z,10.50
2022-08-14T02:40:35.674Z,9.50
2022-08-14T02:43:26.189Z,9.40
2022-08-14T02:46:32.095Z,10.80
2022-08-14T02:49:31.515Z,11.50
2022-08-14T02:52:55.826Z,8.80
2022-08-14T02:55:34.420Z,7.90
2022-08-14T02:58:30.533Z,7.10
2022-08-14T03:01:22.282Z,7.70
2022-08-14T03:04:05.562Z,10.50
2022-08-14T03:07:06.275Z,7.70
2022-08-14T03:10:25.914Z,9.50
2022-08-14T03:13:06.029Z,8.80
2022-08-14T03:16:01.592Z,7.60
2022-08-14T03:19:00.214Z,8.30
2022-08-14T03:21:53.109Z,10.00
2022-08-14T03:24:36.074Z,10.60
2022-08-14T03:27:35.528Z,10.30
2022-08-14T03:30:41.037Z,9.90
2022-08-14T03:33:37.816Z,8.60
2022-08-14T03:39:38.412Z,8.90
2022-08-14T03:42:35.893Z,7.80
2022-08-14T03:45:35.429Z,9.70
2022-08-14T03:48:30.277Z,10.70
2022-08-14T03:51:20.537Z,10.40
2022-08-14T03:54:20.465Z,12.80
2022-08-14T03:57:10.139Z,8.30
2022-08-14T04:00:05.392Z,11.60
2022-08-14T04:02:54.034Z,13.20
2022-08-14T04:05:49.014Z,11.00
2022-08-14T04:08:39.496Z,10.50
2022-08-14T04:11:30.718Z,10.90
2022-08-14T04:14:19.723Z,8.10
2022-08-14T04:17:10.128Z,9.70
2022-08-14T04:20:04.824Z,8.20
2022-08-14T04:22:55.615Z,7.80
2022-08-14T04:25:44.430Z,14.00
2022-08-14T04:29:08.605Z,10.20
2022-08-14T04:33:01.777Z,11.60
2022-08-14T04:34:56.715Z,10.00
2022-08-14T04:38:14.557Z,9.60
2022-08-14T04:41:30.958Z,9.50
2022-08-14T04:44:09.990Z,12.10
2022-08-14T04:47:33.453Z,9.90
2022-08-14T04:50:33.861Z,9.20
2022-08-14T04:53:34.635Z,10.90
2022-08-14T04:56:31.172Z,9.70
2022-08-14T04:59:23.930Z,9.50
2022-08-14T05:02:13.869Z,9.80
2022-08-14T05:05:02.709Z,9.10
2022-08-14T05:08:01.616Z,9.70
2022-08-14T05:10:52.124Z,9.80
2022-08-14T05:13:47.492Z,9.00
2022-08-14T05:16:46.824Z,9.40
2022-08-14T05:19:44.265Z,9.90
2022-08-14T05:22:45.460Z,10.10
2022-08-14T05:25:34.799Z,12.00
2022-08-14T05:28:25.827Z,10.00
2022-08-14T05:31:08.673Z,9.00
2022-08-14T05:33:58.131Z,11.40
2022-08-14T05:36:50.701Z,11.60
2022-08-14T05:39:50.824Z,10.40
2022-08-14T05:42:39.795Z,12.50
2022-08-14T05:45:27.605Z,11.90
2022-08-14T05:48:33.142Z,11.80
2022-08-14T05:51:23.811Z,10.40
2022-08-14T05:57:09.701Z,12.30
2022-08-14T05:59:58.858Z,10.40
2022-08-14T06:02:49.331Z,10.20
2022-08-14T06:05:31.371Z,11.20
2022-08-14T06:08:21.706Z,13.80
2022-08-14T06:11:30.748Z,14.70
2022-08-14T06:14:21.360Z,14.30
2022-08-14T06:17:12.554Z,12.20
2022-08-14T06:20:15.602Z,13.20
2022-08-14T06:23:11.081Z,11.20
2022-08-14T06:25:59.775Z,12.80
2022-08-14T06:28:52.426Z,12.50
2022-08-14T06:31:41.587Z,13.30
2022-08-14T06:35:03.240Z,13.00
2022-08-14T06:37:43.750Z,13.80
2022-08-14T06:40:35.605Z,12.60
2022-08-14T06:43:31.886Z,15.50
2022-08-14T06:46:23.107Z,12.50
2022-08-14T06:49:21.234Z,12.80
2022-08-14T06:52:15.095Z,12.70
2022-08-14T06:55:06.314Z,14.30
2022-08-14T06:57:58.105Z,14.40
2022-08-14T07:01:02.362Z,12.70
2022-08-14T07:04:22.863Z,12.40
2022-08-14T07:07:12.891Z,14.60
2022-08-14T07:10:04.478Z,12.80
2022-08-14T07:13:01.128Z,13.40
2022-08-14T07:15:55.314Z,12.50
2022-08-14T07:18:45.094Z,13.40
2022-08-14T07:21:39.849Z,13.30
2022-08-14T07:24:31.339Z,14.00
2022-08-14T07:27:20.463Z,13.80
2022-08-14T07:30:34.193Z,14.10
2022-08-14T07:33:28.937Z,13.20
2022-08-14T07:36:27.006Z,12.50
2022-08-14T07:39:19.218Z,15.50
2022-08-14T07:42:09.322Z,13.00
2022-08-14T07:44:50.753Z,12.90
2022-08-14T07:47:30.832Z,12.20
2022-08-14T07:50:22.024Z,12.80
2022-08-14T07:53:13.597Z,13.00
2022-08-14T07:56:21.473Z,13.40
2022-08-14T07:59:14.805Z,14.60
2022-08-14T08:02:05.984Z,13.70
2022-08-14T08:05:08.397Z,13.40
2022-08-14T08:07:58.341Z,15.30
2022-08-14T08:11:02.872Z,14.80
2022-08-14T08:13:54.595Z,13.90
2022-08-14T08:16:45.110Z,14.40
2022-08-14T08:19:36.903Z,16.90
2022-08-14T08:22:32.533Z,16.30
2022-08-14T08:25:21.873Z,14.90
2022-08-14T08:28:20.073Z,13.30
2022-08-14T08:31:13.062Z,14.00
2022-08-14T08:34:06.180Z,12.50
2022-08-14T08:36:47.912Z,10.90
2022-08-14T08:40:03.422Z,11.80
2022-08-14T08:42:53.342Z,15.20
2022-08-14T08:45:54.739Z,13.80
2022-08-14T08:48:53.779Z,12.80
2022-08-14T08:51:43.660Z,12.40
2022-08-14T08:54:33.796Z,12.40
2022-08-14T08:57:24.187Z,13.40
2022-08-14T09:00:25.373Z,13.50
2022-08-14T09:03:10.510Z,14.30
2022-08-14T09:06:01.001Z,13.70
2022-08-14T09:58:15.092Z,12.30
2022-08-14T10:06:06.338Z,12.10
2022-08-14T10:13:28.224Z,13.50
2022-08-14T10:17:53.864Z,12.10
2022-08-14T10:21:15.757Z,11.70
2022-08-14T10:29:18.841Z,11.70
2022-08-14T10:32:52.065Z,11.60
2022-08-14T10:36:35.220Z,11.30
2022-08-14T10:44:20.862Z,11.30
2022-08-14T10:52:09.197Z,11.00
2022-08-14T10:56:06.397Z,12.40
2022-08-14T10:59:43.372Z,13.20
2022-08-14T11:02:59.061Z,11.60
2022-08-14T11:11:00.074Z,12.10
2022-08-14T11:13:57.387Z,12.60
2022-08-14T11:21:06.730Z,12.20
2022-08-14T11:24:55.257Z,12.40
2022-08-14T11:32:33.498Z,11.80
2022-08-14T11:35:25.692Z,12.30
2022-08-14T11:38:38.098Z,12.20
2022-08-14T11:41:26.896Z,12.30
2022-08-14T11:44:17.745Z,14.20
2022-08-14T11:47:25.268Z,12.80
2022-08-14T11:50:34.133Z,14.10
2022-08-14T11:53:29.754Z,16.90
2022-08-14T11:56:25.227Z,13.90
2022-08-14T11:59:17.831Z,13.50
2022-08-14T12:03:01.138Z,13.70
2022-08-14T12:05:31.340Z,15.10
2022-08-14T12:08:24.486Z,15.00
2022-08-14T12:11:19.223Z,14.10
2022-08-14T12:14:31.156Z,19.60
2022-08-14T12:17:23.878Z,12.10
2022-08-14T12:20:14.916Z,12.10
2022-08-14T12:23:05.924Z,12.70
2022-08-14T12:26:31.978Z,14.40
2022-08-14T12:29:15.953Z,13.10
2022-08-14T12:32:06.784Z,13.20
2022-08-14T12:34:58.069Z,13.60
2022-08-14T12:37:52.028Z,12.70
2022-08-14T12:40:48.440Z,14.40
2022-08-14T12:43:47.259Z,13.50
2022-08-14T12:46:36.958Z,12.70
2022-08-14T12:49:28.177Z,12.00
2022-08-14T12:52:30.649Z,11.80
2022-08-14T12:56:18.546Z,11.40
2022-08-14T12:58:51.809Z,12.50
2022-08-14T13:02:00.109Z,17.00
2022-08-14T13:04:55.013Z,13.90
2022-08-14T13:07:45.781Z,14.40
2022-08-14T13:10:51.517Z,15.60
2022-08-14T13:13:44.694Z,12.90
2022-08-14T13:16:38.633Z,12.30
2022-08-14T13:19:29.370Z,12.70
2022-08-14T13:22:29.171Z,14.40
2022-08-14T13:25:24.227Z,12.40
2022-08-14T13:28:13.323Z,15.90
2022-08-14T13:31:23.984Z,11.80
2022-08-14T13:34:21.062Z,12.00
2022-08-14T13:37:10.583Z,13.10
2022-08-14T13:40:05.441Z,12.60
2022-08-14T13:42:57.316Z,15.30
2022-08-14T13:46:00.783Z,13.40
2022-08-14T13:48:50.842Z,12.00
2022-08-14T13:51:42.742Z,13.60
2022-08-14T13:54:33.902Z,13.10
2022-08-14T13:57:21.619Z,15.90
2022-08-14T14:00:21.712Z,15.10
2022-08-14T14:03:22.998Z,14.60
2022-08-14T14:06:13.469Z,14.30
2022-08-14T14:09:03.233Z,15.80
2022-08-14T14:11:53.997Z,13.10
2022-08-14T14:14:51.050Z,13.10
2022-08-14T14:17:43.983Z,12.40
2022-08-14T14:20:35.771Z,16.00
2022-08-14T14:23:17.694Z,14.10
2022-08-14T14:26:07.460Z,12.20
2022-08-14T14:29:05.677Z,13.40
2022-08-14T14:31:54.433Z,16.00
2022-08-14T14:34:45.641Z,13.60
2022-08-14T14:37:27.737Z,12.90
2022-08-14T14:40:53.751Z,12.20
2022-08-14T14:46:18.661Z,11.50
2022-08-14T14:49:13.918Z,14.60
2022-08-14T14:52:04.808Z,11.90
2022-08-14T14:54:54.512Z,16.00
2022-08-14T14:57:44.601Z,12.40
2022-08-14T15:00:41.293Z,12.80
2022-08-14T15:03:29.969Z,12.40
2022-08-14T15:06:20.601Z,15.80
2022-08-14T15:09:09.297Z,12.60
2022-08-14T15:12:27.912Z,13.40
2022-08-14T15:15:16.387Z,14.40
2022-08-14T15:18:14.813Z,14.80
2022-08-14T15:21:15.887Z,13.60
2022-08-14T15:24:05.968Z,13.80
2022-08-14T15:26:58.657Z,12.10
2022-08-14T15:29:48.297Z,14.70
2022-08-14T15:32:37.050Z,13.00
2022-08-14T15:35:28.014Z,14.10
2022-08-14T15:38:18.665Z,20.40
2022-08-14T15:41:08.539Z,13.40
2022-08-14T15:43:57.815Z,13.90
2022-08-14T15:46:46.599Z,13.00
2022-08-14T15:49:37.436Z,13.50
2022-08-14T15:52:32.851Z,12.40
2022-08-14T15:55:16.518Z,13.20
2022-08-14T15:58:08.142Z,14.10
2022-08-14T16:01:50.643Z,16.00
2022-08-14T16:04:30.736Z,13.80
2022-08-14T16:07:22.271Z,13.60
2022-08-14T16:10:28.917Z,14.70
2022-08-14T16:13:20.408Z,14.80
2022-08-14T16:16:49.715Z,16.00
2022-08-14T16:19:44.512Z,13.70
2022-08-14T16:22:58.639Z,13.80
2022-08-14T16:25:45.108Z,14.50
2022-08-14T16:28:34.882Z,13.50
2022-08-14T16:31:17.800Z,13.40
2022-08-14T16:34:43.737Z,13.80
2022-08-14T16:37:16.736Z,12.90
2022-08-14T16:40:00.710Z,13.70
2022-08-14T16:43:04.779Z,17.10
2022-08-14T16:46:00.218Z,13.70
2022-08-14T16:48:57.882Z,14.00
2022-08-14T16:51:43.136Z,16.90
2022-08-14T16:54:34.842Z,14.50
2022-08-14T16:57:33.523Z,15.30
2022-08-14T17:00:32.604Z,16.40
2022-08-14T17:03:15.899Z,14.60
2022-08-14T17:06:10.837Z,15.00
2022-08-14T17:09:09.059Z,14.00
2022-08-14T17:12:07.329Z,18.60
2022-08-14T17:15:01.015Z,16.40
2022-08-14T17:17:57.842Z,15.10
2022-08-14T17:21:00.474Z,15.30
2022-08-14T17:23:57.463Z,17.20
2022-08-14T17:26:50.054Z,15.20
2022-08-14T17:29:44.856Z,14.10
2022-08-14T17:32:56.986Z,16.10
2022-08-14T17:35:58.652Z,14.20
2022-08-14T17:39:00.272Z,16.50
2022-08-14T17:41:48.107Z,15.10
2022-08-14T17:45:00.796Z,15.70
2022-08-14T17:47:49.966Z,15.90
2022-08-14T17:50:59.418Z,15.10
2022-08-14T17:53:53.921Z,15.30
2022-08-14T17:56:53.553Z,14.40
2022-08-14T17:59:45.195Z,16.40
2022-08-14T18:02:35.143Z,16.70
2022-08-14T18:06:07.391Z,17.20
2022-08-14T18:08:41.064Z,18.50
2022-08-14T18:11:45.877Z,15.50
2022-08-14T18:14:32.542Z,18.70
2022-08-14T18:17:23.347Z,21.10
2022-08-14T18:20:15.857Z,16.10
2022-08-14T18:23:23.447Z,15.70
2022-08-14T18:26:36.021Z,16.20
2022-08-14T18:29:31.450Z,16.00
2022-08-14T18:32:47.583Z,15.60
2022-08-14T18:35:58.647Z,18.90
2022-08-14T18:38:55.298Z,21.80
2022-08-14T18:41:49.625Z,16.40
2022-08-14T18:45:12.951Z,14.50
2022-08-14T18:48:33.254Z,14.70
2022-08-14T18:51:45.143Z,16.40
2022-08-14T18:54:35.925Z,12.50
2022-08-14T18:57:24.932Z,14.90
2022-08-14T19:00:51.413Z,10.90
2022-08-14T19:03:48.858Z,13.30
2022-08-14T19:06:55.937Z,13.60
2022-08-14T19:09:56.571Z,13.90
2022-08-14T19:13:02.373Z,12.80
2022-08-14T19:16:05.742Z,14.50
2022-08-14T19:19:00.026Z,13.40
2022-08-14T19:21:56.750Z,13.00
2022-08-14T19:24:45.423Z,13.30
2022-08-14T19:27:45.683Z,12.90
2022-08-14T19:30:27.223Z,12.60
2022-08-14T19:33:49.005Z,11.20
2022-08-14T19:37:04.495Z,11.40
2022-08-14T19:39:55.561Z,14.30
2022-08-14T19:42:46.618Z,12.60
2022-08-14T19:45:29.803Z,14.20
2022-08-14T19:48:22.835Z,12.00
2022-08-14T19:51:01.998Z,12.70
2022-08-14T19:53:56.736Z,12.70
2022-08-14T19:56:46.276Z,10.50
2022-08-14T19:59:57.245Z,11.00
2022-08-14T20:02:41.358Z,13.10
2022-08-14T20:05:34.662Z,12.30
2022-08-14T22:13:00.990Z,11.80
2022-08-14T22:15:56.652Z,12.40
2022-08-14T22:23:46.559Z,14.30
2022-08-14T22:26:39.757Z,11.20
2022-08-14T22:29:32.654Z,13.30
2022-08-14T22:32:30.183Z,13.20
2022-08-14T22:35:32.279Z,14.50
2022-08-14T22:38:37.555Z,13.10
2022-08-14T22:41:29.089Z,12.60
2022-08-14T22:44:17.395Z,13.80
2022-08-14T22:47:08.730Z,15.50
2022-08-14T22:50:30.757Z,15.00
2022-08-14T22:53:07.241Z,13.60
2022-08-14T22:55:59.025Z,12.30
2022-08-14T22:58:48.694Z,16.20
2022-08-14T23:01:55.692Z,15.70
2022-08-14T23:08:56.340Z,12.30
2022-08-14T23:10:54.138Z,14.40
2022-08-14T23:13:46.345Z,15.50
2022-08-14T23:16:25.828Z,16.40
2022-08-14T23:19:15.595Z,12.90
2022-08-14T23:22:06.720Z,12.80
2022-08-14T23:24:56.838Z,16.60
2022-08-14T23:28:03.486Z,15.80
2022-08-14T23:30:55.257Z,15.30
2022-08-14T23:33:46.172Z,13.40
2022-08-14T23:36:53.671Z,13.40
2022-08-14T23:39:43.442Z,13.00
2022-08-14T23:42:40.345Z,14.40
2022-08-14T23:45:45.445Z,17.00
2022-08-14T23:48:34.721Z,15.70
2022-08-14T23:51:27.699Z,13.50
2022-08-14T23:54:47.575Z,16.90
2022-08-14T23:57:34.982Z,15.70
